Time;durP1;ratioP1;P1;durP2;ratioP2;P2;SDS_P1;SDS_P2;PMS_P1;PMS_P2;Temp;Humidity;BMP_temperature;BMP_pressure;BME280_temperature;BME280_humidity;BME280_pressure;Samples;Min_cycle;Max_cycle;Signal;HPM_P1;HPM_P2
2022/02/04 00:22:22;;;;;;;10.23;4.20;;;0.10;99.90;;;;;;5090884;28;20189;-73
2022/02/04 00:24:32;;;;;;;11.88;5.82;;;0.10;99.90;;;;;;5090440;28;20187;-73
2022/02/04 00:27:05;;;;;;;8.70;4.47;;;-0.10;99.90;;;;;;5089810;28;20274;-73
2022/02/04 00:29:40;;;;;;;9.43;5.03;;;-0.10;99.90;;;;;;5090654;28;20569;-72
2022/02/04 00:32:09;;;;;;;11.68;4.85;;;-0.20;99.90;;;;;;5090284;28;20228;-72
2022/02/04 00:34:45;;;;;;;9.38;4.95;;;-0.30;99.90;;;;;;5090646;28;20156;-72
2022/02/04 00:39:55;;;;;;;7.72;4.32;;;-0.40;99.90;;;;;;5090787;28;20181;-74
2022/02/04 00:42:21;;;;;;;10.32;4.50;;;-0.40;99.90;;;;;;5090723;28;20174;-74
2022/02/04 00:44:48;;;;;;;7.47;3.85;;;-0.40;99.90;;;;;;5090488;28;20157;-73
2022/02/04 00:47:19;;;;;;;10.80;4.97;;;-0.40;99.90;;;;;;5090476;28;20247;-74
2022/02/04 00:50:10;;;;;;;10.20;4.88;;;-0.50;99.90;;;;;;5090583;28;20168;-73
2022/02/04 00:52:50;;;;;;;5.57;3.78;;;-0.50;99.90;;;;;;5090445;28;20159;-73
2022/02/04 00:55:26;;;;;;;8.48;4.40;;;-0.50;99.90;;;;;;5090255;28;20178;-73
2022/02/04 01:06:24;;;;;;;10.45;4.18;;;-0.40;99.90;;;;;;5090249;28;20207;-73
2022/02/04 01:28:00;;;;;;;8.32;5.20;;;-0.40;99.90;;;;;;5089548;28;20199;-74
2022/02/04 01:30:31;;;;;;;7.85;4.03;;;-0.50;99.90;;;;;;5089660;28;20157;-74
2022/02/04 01:32:57;;;;;;;10.52;4.35;;;-0.50;99.90;;;;;;5089619;28;20167;-71
2022/02/04 01:35:23;;;;;;;6.47;4.00;;;-0.50;99.90;;;;;;5089492;28;20156;-72
2022/02/04 01:37:49;;;;;;;5.47;3.70;;;-0.50;99.90;;;;;;5089577;28;20184;-72
2022/02/04 01:40:14;;;;;;;7.00;4.15;;;-0.50;99.90;;;;;;5089617;28;20239;-74
2022/02/04 01:42:40;;;;;;;9.93;4.80;;;-0.50;99.90;;;;;;5089612;28;20164;-74
2022/02/04 01:45:07;;;;;;;6.35;3.90;;;-0.40;99.90;;;;;;5089524;28;20203;-71
2022/02/04 01:47:32;;;;;;;7.60;4.25;;;-0.30;99.90;;;;;;5089464;28;20192;-72
2022/02/04 01:49:59;;;;;;;11.60;5.18;;;-0.30;99.90;;;;;;5089502;28;20171;-72
2022/02/04 01:52:25;;;;;;;7.13;4.68;;;-0.30;99.90;;;;;;5089488;28;20156;-71
2022/02/04 01:54:51;;;;;;;11.65;4.10;;;-0.30;99.90;;;;;;5089690;28;20242;-73
2022/02/04 01:57:17;;;;;;;9.35;4.03;;;-0.30;99.90;;;;;;5089295;28;20211;-72
2022/02/04 01:59:43;;;;;;;7.78;3.45;;;-0.30;99.90;;;;;;5089318;28;20162;-72
2022/02/04 02:02:08;;;;;;;9.95;4.20;;;-0.40;99.90;;;;;;5089062;28;20219;-72
2022/02/04 02:04:34;;;;;;;8.88;4.53;;;-0.40;99.90;;;;;;5089238;28;20164;-71
2022/02/04 02:07:10;;;;;;;6.70;4.03;;;-0.40;99.90;;;;;;5089072;28;20218;-72
2022/02/04 02:09:58;;;;;;;12.23;4.47;;;-0.40;99.90;;;;;;5089334;28;20147;-71
2022/02/04 02:12:28;;;;;;;7.05;3.90;;;-0.50;99.90;;;;;;5088922;28;20177;-72
2022/02/04 02:15:06;;;;;;;10.02;5.03;;;-0.60;99.90;;;;;;5089240;28;20156;-73
2022/02/04 02:39:51;;;;;;;4.68;3.33;;;-0.80;99.90;;;;;;5093030;28;20168;-73
2022/02/04 02:52:24;;;;;;;7.15;4.68;;;-0.50;99.90;;;;;;5092742;28;20158;-73
2022/02/04 03:03:07;;;;;;;12.63;4.82;;;-0.50;99.90;;;;;;5092729;28;20183;-73
2022/02/04 03:05:33;;;;;;;9.82;5.90;;;-0.50;99.90;;;;;;5092319;28;20244;-73
2022/02/04 03:08:00;;;;;;;13.30;6.07;;;-0.60;99.90;;;;;;5092197;28;20192;-72
2022/02/04 03:10:26;;;;;;;11.23;5.97;;;-0.60;99.90;;;;;;5091161;28;20187;-73
2022/02/04 03:12:53;;;;;;;9.90;6.25;;;-0.70;99.90;;;;;;5092278;28;20160;-73
2022/02/04 03:15:20;;;;;;;14.80;5.28;;;-0.90;99.90;;;;;;5092326;28;20156;-73
2022/02/04 03:18:21;;;;;;;8.55;5.15;;;-1.00;99.90;;;;;;5092219;28;20218;-73
2022/02/04 03:20:46;;;;;;;12.50;4.47;;;-1.10;99.90;;;;;;5092002;28;20227;-73
2022/02/04 03:23:13;;;;;;;12.70;5.80;;;-1.20;99.90;;;;;;5092112;28;20156;-74
2022/02/04 03:25:43;;;;;;;8.13;4.80;;;-1.30;99.90;;;;;;5091969;28;20180;-73
2022/02/04 03:28:14;;;;;;;14.18;5.43;;;-1.40;99.90;;;;;;5092034;28;20188;-73
2022/02/04 03:30:42;;;;;;;10.38;4.85;;;-1.50;99.90;;;;;;5092059;28;20227;-74
2022/02/04 03:33:08;;;;;;;10.90;5.15;;;-1.50;99.90;;;;;;5091923;28;20152;-74
2022/02/04 03:35:35;;;;;;;12.35;4.90;;;-1.50;99.90;;;;;;5091941;28;20180;-73
2022/02/04 03:38:02;;;;;;;10.05;5.57;;;-1.50;99.90;;;;;;5079085;28;20204;-73
2022/02/04 03:40:28;;;;;;;9.80;5.38;;;-1.60;99.90;;;;;;5071509;28;20618;-74
2022/02/04 03:42:54;;;;;;;11.55;5.53;;;-1.70;99.90;;;;;;5070276;28;20168;-73
2022/02/04 03:45:21;;;;;;;15.95;5.60;;;-1.80;99.90;;;;;;5071563;28;20184;-73
2022/02/04 03:47:48;;;;;;;10.05;5.63;;;-1.80;99.90;;;;;;5071597;28;20609;-73
2022/02/04 03:50:14;;;;;;;9.43;5.88;;;-1.70;99.90;;;;;;5071485;28;20153;-73
2022/02/04 03:52:41;;;;;;;14.88;6.28;;;-1.70;99.90;;;;;;5071406;28;20153;-73
2022/02/04 03:55:09;;;;;;;9.80;5.97;;;-1.70;99.90;;;;;;5071200;28;20155;-73
2022/02/04 03:57:35;;;;;;;10.45;5.75;;;-1.80;99.90;;;;;;5071269;28;20251;-73
2022/02/04 04:00:01;;;;;;;7.78;5.18;;;-1.90;99.90;;;;;;5071151;28;20164;-73
2022/02/04 04:02:27;;;;;;;9.13;5.15;;;-1.90;99.90;;;;;;5071355;28;20164;-73
2022/02/04 04:04:53;;;;;;;6.70;5.78;;;-1.90;99.90;;;;;;5069678;28;20191;-73
2022/02/04 04:07:19;;;;;;;12.85;4.95;;;-2.00;99.90;;;;;;5070977;28;20256;-73
2022/02/04 04:09:49;;;;;;;8.27;5.78;;;-2.00;99.90;;;;;;5071000;28;20216;-73
2022/02/04 04:12:17;;;;;;;14.05;6.28;;;-2.00;99.90;;;;;;5070957;28;20175;-74
2022/02/04 04:14:43;;;;;;;11.98;5.75;;;-2.00;99.90;;;;;;5071209;28;20533;-74
2022/02/04 04:17:09;;;;;;;12.13;6.45;;;-2.10;99.90;;;;;;5071100;28;20192;-73
2022/02/04 04:19:35;;;;;;;15.75;5.63;;;-2.20;99.90;;;;;;5071032;28;20161;-74
2022/02/04 04:22:01;;;;;;;10.23;6.18;;;-2.30;99.90;;;;;;5070898;28;20165;-74
2022/02/04 04:24:26;;;;;;;10.63;5.88;;;-2.30;99.90;;;;;;5070901;28;20169;-73
2022/02/04 04:26:52;;;;;;;14.65;6.40;;;-2.40;99.90;;;;;;5070814;28;20555;-74
2022/02/04 04:29:18;;;;;;;11.30;5.53;;;-2.50;99.90;;;;;;5070768;28;20153;-73
2022/02/04 04:31:44;;;;;;;20.58;5.45;;;-2.50;99.90;;;;;;5070992;28;20161;-73
2022/02/04 04:34:10;;;;;;;11.88;6.60;;;-2.50;99.90;;;;;;5070750;28;20157;-71
2022/02/04 04:36:35;;;;;;;10.25;5.28;;;-2.40;99.90;;;;;;5070526;28;20164;-72
2022/02/04 05:30:45;;;;;;;7.45;4.25;;;-1.60;99.90;;;;;;5078366;28;20200;-73
2022/02/04 05:33:11;;;;;;;10.23;4.53;;;-1.50;99.90;;;;;;5069611;28;20164;-72
2022/02/04 05:35:37;;;;;;;8.23;4.72;;;-1.50;99.90;;;;;;5069465;28;20165;-73
2022/02/04 05:38:03;;;;;;;7.72;4.53;;;-1.40;99.90;;;;;;5069360;28;20188;-72
2022/02/04 05:40:38;;;;;;;8.32;4.65;;;-1.40;99.90;;;;;;5069013;28;20199;-73
2022/02/04 05:43:30;;;;;;;8.23;4.95;;;-1.40;99.90;;;;;;5069375;28;20153;-73
2022/02/04 05:46:02;;;;;;;10.63;5.60;;;-1.40;99.90;;;;;;5069332;28;20200;-72
2022/02/04 05:48:30;;;;;;;9.82;5.38;;;-1.40;99.90;;;;;;5069145;28;20187;-73
2022/02/04 05:51:11;;;;;;;10.07;4.90;;;-1.50;99.90;;;;;;5069124;28;20160;-72
2022/02/04 05:53:55;;;;;;;8.57;4.68;;;-1.60;99.90;;;;;;5068932;28;20217;-72
2022/02/04 05:56:32;;;;;;;7.93;4.35;;;-1.50;99.90;;;;;;5069200;28;20163;-72
2022/02/04 06:01:51;;;;;;;10.43;6.00;;;-1.60;99.90;;;;;;5068357;28;20234;-73
2022/02/04 06:07:05;;;;;;;12.27;6.18;;;-1.60;99.90;;;;;;5068851;28;20185;-73
2022/02/04 06:22:24;;;;;;;14.50;5.70;;;-1.50;99.90;;;;;;5068562;28;20155;-73
2022/02/04 06:24:53;;;;;;;8.85;5.05;;;-1.40;99.90;;;;;;5068790;28;20175;-72
2022/02/04 06:27:22;;;;;;;6.25;4.90;;;-1.40;99.90;;;;;;5068506;28;20219;-73
2022/02/04 06:29:53;;;;;;;12.40;5.57;;;-1.30;99.90;;;;;;5068558;28;20610;-74
2022/02/04 06:32:20;;;;;;;11.00;5.13;;;-1.20;99.90;;;;;;5068509;28;20153;-73
2022/02/04 06:34:47;;;;;;;12.02;6.13;;;-1.20;99.90;;;;;;5068502;28;20176;-73
2022/02/04 06:37:14;;;;;;;10.57;5.35;;;-1.10;99.90;;;;;;5068473;28;20251;-72
2022/02/04 06:39:40;;;;;;;8.80;5.35;;;-0.90;99.90;;;;;;5068551;28;20199;-73
2022/02/04 06:42:07;;;;;;;9.48;6.60;;;-0.90;99.90;;;;;;5068634;28;20192;-73
2022/02/04 06:44:34;;;;;;;14.18;6.60;;;-0.80;99.90;;;;;;5068733;28;20161;-73
2022/02/04 06:47:01;;;;;;;13.45;6.55;;;-0.80;99.90;;;;;;5067780;28;20197;-73
2022/02/04 06:49:27;;;;;;;12.30;6.45;;;-0.80;99.90;;;;;;5068509;28;20153;-74
2022/02/04 06:51:53;;;;;;;7.72;5.10;;;-0.80;99.90;;;;;;5068404;28;20183;-73
2022/02/04 06:54:19;;;;;;;10.65;6.18;;;-0.80;99.90;;;;;;5068336;28;20153;-72
2022/02/04 06:56:45;;;;;;;13.40;6.13;;;-0.90;99.90;;;;;;5068389;28;20161;-73
2022/02/04 06:59:11;;;;;;;11.00;5.82;;;-0.80;99.90;;;;;;5068454;28;20187;-73
2022/02/04 07:01:37;;;;;;;7.15;5.35;;;-0.90;99.90;;;;;;5067950;28;20250;-73
2022/02/04 07:04:05;;;;;;;10.45;5.75;;;-0.90;99.90;;;;;;5068351;28;20165;-73
2022/02/04 07:06:36;;;;;;;9.50;5.22;;;-1.00;99.90;;;;;;5068394;28;20216;-72
2022/02/04 07:14:37;;;;;;;15.55;6.18;;;-0.90;99.90;;;;;;5071834;28;20160;-73
2022/02/04 07:17:15;;;;;;;8.05;5.78;;;-0.70;99.90;;;;;;5072209;28;20167;-73
2022/02/04 07:19:48;;;;;;;14.32;5.57;;;-0.50;99.90;;;;;;5071915;28;20152;-73
2022/02/04 07:22:15;;;;;;;15.32;6.82;;;-0.20;99.90;;;;;;5071875;28;20161;-73
2022/02/04 07:24:42;;;;;;;10.82;5.88;;;0.10;99.90;;;;;;5071846;28;20156;-72
2022/02/04 07:27:07;;;;;;;15.18;6.10;;;0.00;99.90;;;;;;5070397;28;20212;-72
2022/02/04 07:29:35;;;;;;;7.88;5.50;;;0.00;99.90;;;;;;5070588;28;20211;-73
2022/02/04 07:32:25;;;;;;;10.77;4.72;;;0.10;99.90;;;;;;5071813;28;20153;-73
2022/02/04 07:42:54;;;;;;;14.63;6.63;;;1.50;99.90;;;;;;5071528;28;20648;-73
2022/02/04 07:45:21;;;;;;;10.77;6.93;;;1.40;99.90;;;;;;5071422;28;20189;-72
2022/02/04 07:47:48;;;;;;;17.50;9.38;;;1.60;99.90;;;;;;5071405;28;20189;-73
2022/02/04 07:50:14;;;;;;;13.93;8.13;;;1.90;99.90;;;;;;5071416;28;20211;-73
2022/02/04 07:52:40;;;;;;;11.55;7.88;;;2.10;99.90;;;;;;5071482;28;20204;-72
2022/02/04 07:55:06;;;;;;;14.93;8.35;;;2.20;99.90;;;;;;5071275;28;20168;-73
2022/02/04 07:57:34;;;;;;;12.65;7.65;;;2.10;99.90;;;;;;5071395;28;20279;-72
2022/02/04 08:00:03;;;;;;;11.55;7.38;;;2.10;99.90;;;;;;5071027;28;20153;-73
2022/02/04 08:02:29;;;;;;;10.75;6.80;;;2.20;99.90;;;;;;5070973;28;20172;-73
2022/02/04 08:05:01;;;;;;;12.80;7.10;;;2.40;99.90;;;;;;5071255;28;20334;-72
2022/02/04 08:07:31;;;;;;;7.80;5.82;;;2.50;99.90;;;;;;5070957;28;20203;-72
2022/02/04 08:10:24;;;;;;;6.70;5.18;;;2.40;99.90;;;;;;5071243;28;20188;-72
2022/02/04 08:31:22;;;;;;;13.45;7.38;;;10.20;99.90;;;;;;5089593;28;20167;-73
2022/02/04 08:47:35;;;;;;;8.15;4.88;;;15.00;99.90;;;;;;5070944;28;20558;-70
2022/02/04 08:50:35;;;;;;;11.90;6.03;;;16.20;99.90;;;;;;5090000;28;20179;-73
2022/02/04 08:53:57;;;;;;;11.35;5.88;;;16.90;99.80;;;;;;5082069;28;20195;-73
2022/02/04 08:55:54;;;;;;;10.68;5.70;;;18.10;98.60;;;;;;5072207;28;20188;-73
2022/02/04 08:58:35;;;;;;;10.55;5.35;;;18.10;98.90;;;;;;5074558;28;20188;-72
2022/02/04 09:01:09;;;;;;;7.75;5.47;;;17.30;99.70;;;;;;5076762;28;20245;-73
2022/02/04 09:03:50;;;;;;;14.38;6.38;;;16.90;99.80;;;;;;5089913;28;20156;-72
2022/02/04 09:06:27;;;;;;;7.45;5.43;;;16.50;99.90;;;;;;5075501;28;20192;-72
2022/02/04 09:08:59;;;;;;;13.57;5.70;;;17.20;99.20;;;;;;5069801;28;20160;-73
2022/02/04 09:11:48;;;;;;;15.65;5.60;;;17.20;98.60;;;;;;5068180;28;20536;-72
2022/02/04 09:19:44;;;;;;;14.05;6.20;;;16.90;98.80;;;;;;5089720;28;20172;-72
2022/02/04 09:22:26;;;;;;;21.85;7.53;;;16.30;98.60;;;;;;5089644;28;20266;-71
2022/02/04 09:24:52;;;;;;;14.85;5.85;;;15.60;99.80;;;;;;5089504;28;20220;-73
2022/02/04 09:27:18;;;;;;;11.20;5.72;;;15.70;99.80;;;;;;5089249;28;20195;-73
2022/02/04 09:29:44;;;;;;;17.40;7.28;;;15.60;99.60;;;;;;5089352;28;20163;-72
2022/02/04 09:32:10;;;;;;;16.10;7.20;;;14.90;99.90;;;;;;5074690;28;20196;-72
2022/02/04 09:34:36;;;;;;;13.50;6.63;;;14.40;99.90;;;;;;5082590;28;20187;-73
2022/02/04 09:37:02;;;;;;;10.13;6.47;;;15.40;99.90;;;;;;5088703;28;20194;-72
2022/02/04 09:39:28;;;;;;;14.88;7.32;;;16.40;99.10;;;;;;5088927;28;20156;-72
2022/02/04 09:41:54;;;;;;;16.33;7.30;;;13.90;99.90;;;;;;5088810;28;20221;-73
2022/02/04 09:44:20;;;;;;;22.60;6.93;;;12.70;99.90;;;;;;5089054;28;20164;-72
2022/02/04 09:46:46;;;;;;;18.38;6.63;;;12.10;99.90;;;;;;5087251;28;20218;-72
2022/02/04 09:49:19;;;;;;;18.35;7.00;;;11.40;99.90;;;;;;5087831;28;20189;-71
2022/02/04 10:17:24;;;;;;;11.30;5.88;;;18.50;95.50;;;;;;5067904;28;20200;-72
2022/02/04 10:19:54;;;;;;;9.05;4.38;;;17.80;96.40;;;;;;5067561;28;20172;-72
2022/02/04 10:22:23;;;;;;;27.27;7.28;;;16.80;97.20;;;;;;5075896;28;20207;-72
2022/02/04 10:24:58;;;;;;;13.68;5.93;;;16.60;98.10;;;;;;5085484;28;20276;-72
2022/02/04 10:27:27;;;;;;;12.77;5.78;;;16.70;97.60;;;;;;5068087;28;20267;-72
2022/02/04 10:29:57;;;;;;;9.30;5.38;;;16.60;97.60;;;;;;5078720;28;20191;-72
2022/02/04 10:32:25;;;;;;;13.00;6.40;;;16.30;98.10;;;;;;5088625;28;20156;-72
2022/02/04 10:35:08;;;;;;;14.18;6.70;;;14.80;99.40;;;;;;5088700;28;20232;-72
2022/02/04 10:37:37;;;;;;;16.35;6.68;;;14.00;99.90;;;;;;5078522;28;20237;-72
2022/02/04 10:40:31;;;;;;;16.40;6.05;;;14.40;99.90;;;;;;5068675;28;20175;-72
2022/02/04 10:43:12;;;;;;;14.07;7.15;;;15.20;99.90;;;;;;5068610;28;20199;-72
2022/02/04 10:45:55;;;;;;;18.80;5.80;;;16.90;97.80;;;;;;5069154;28;20218;-72
2022/02/04 10:51:25;;;;;;;12.65;5.63;;;17.80;96.60;;;;;;5071974;28;20159;-72
2022/02/04 11:03:57;;;;;;;8.93;5.50;;;16.50;97.80;;;;;;5092207;28;20195;-72
2022/02/04 11:09:29;;;;;;;9.32;4.82;;;16.20;98.80;;;;;;5087081;28;20211;-71
2022/02/04 11:32:05;;;;;;;11.07;5.30;;;17.10;96.90;;;;;;5087576;28;20179;-72
2022/02/04 11:34:27;;;;;;;10.77;4.90;;;16.80;96.60;;;;;;5099300;28;20607;-72
2022/02/04 11:43:32;;;;;;;7.55;4.65;;;16.60;97.20;;;;;;5091521;28;20163;-73
2022/02/04 11:57:04;;;;;;;86.65;36.47;;;17.80;95.60;;;;;;5107842;28;20172;-73
2022/02/04 11:59:34;;;;;;;36.03;17.35;;;17.90;96.70;;;;;;5092861;28;20281;-73
2022/02/04 12:02:00;;;;;;;14.98;6.15;;;18.30;97.00;;;;;;5091293;28;20280;-73
2022/02/04 12:04:26;;;;;;;11.90;6.47;;;18.70;95.80;;;;;;5107562;28;20231;-73
2022/02/04 12:06:55;;;;;;;14.75;6.45;;;18.80;94.90;;;;;;5090827;28;20198;-73
2022/02/04 12:09:33;;;;;;;10.25;5.10;;;19.20;95.20;;;;;;5091112;28;20155;-73
2022/02/04 12:11:59;;;;;;;10.10;5.40;;;19.00;94.30;;;;;;5090789;28;20187;-72
2022/02/04 12:14:33;;;;;;;10.25;4.97;;;18.80;95.30;;;;;;5090886;28;20171;-72
2022/02/04 12:17:07;;;;;;;4.80;3.50;;;18.50;95.00;;;;;;5077296;28;20164;-71
2022/02/04 12:19:42;;;;;;;7.80;3.65;;;17.90;95.40;;;;;;5110821;28;20151;-72
2022/02/04 12:22:09;;;;;;;9.25;3.58;;;17.90;95.30;;;;;;5111097;28;20186;-72
2022/02/04 12:24:38;;;;;;;7.25;3.33;;;17.80;96.00;;;;;;5110844;28;20183;-72
2022/02/04 12:27:30;;;;;;;6.13;3.25;;;17.90;95.30;;;;;;5110742;28;20191;-72
2022/02/04 12:29:57;;;;;;;4.70;2.92;;;17.80;96.00;;;;;;5110871;28;20155;-72
2022/02/04 12:32:24;;;;;;;4.65;2.35;;;18.10;94.60;;;;;;5110758;28;20190;-73
2022/02/04 12:34:50;;;;;;;5.60;3.10;;;18.30;95.60;;;;;;5110436;28;20166;-73
2022/02/04 12:37:19;;;;;;;5.65;2.70;;;19.00;94.70;;;;;;5109737;28;20717;-71
2022/02/04 12:39:46;;;;;;;5.55;3.10;;;18.80;94.30;;;;;;5110525;28;20159;-70
2022/02/04 12:42:16;;;;;;;7.00;3.30;;;18.20;94.50;;;;;;5109164;28;20191;-70
2022/02/04 12:44:43;;;;;;;4.20;2.90;;;16.70;96.00;;;;;;5109632;28;20436;-71
2022/02/04 12:47:24;;;;;;;5.43;3.00;;;15.10;97.60;;;;;;5109571;28;20182;-73
2022/02/04 12:49:55;;;;;;;7.20;2.50;;;14.60;99.30;;;;;;5110262;28;20285;-71
2022/02/04 12:52:41;;;;;;;6.35;3.08;;;14.20;99.40;;;;;;5110446;28;20148;-71
2022/02/04 12:55:10;;;;;;;7.38;3.38;;;13.90;99.90;;;;;;5110028;28;20187;-71
2022/02/04 13:08:10;;;;;;;8.70;2.90;;;13.00;99.90;;;;;;5069299;28;20198;-70
2022/02/04 13:10:35;;;;;;;5.45;1.92;;;12.90;99.90;;;;;;5067091;28;20172;-71
2022/02/04 13:13:04;;;;;;;6.28;3.10;;;12.80;99.90;;;;;;5079275;28;20172;-70
2022/02/04 13:15:33;;;;;;;2.65;1.70;;;12.90;99.90;;;;;;5089664;28;20156;-72
2022/02/04 13:18:03;;;;;;;3.67;1.45;;;12.80;99.90;;;;;;5089391;28;20195;-72
2022/02/04 13:20:30;;;;;;;8.20;2.20;;;12.90;99.90;;;;;;5089567;28;20160;-72
2022/02/04 13:23:01;;;;;;;2.33;1.52;;;13.00;99.90;;;;;;5089621;28;20191;-72
2022/02/04 13:25:32;;;;;;;1.50;1.40;;;12.90;99.90;;;;;;5087830;28;20267;-72
2022/02/04 13:28:14;;;;;;;2.40;1.50;;;12.80;99.90;;;;;;5089310;28;20191;-72
2022/02/04 13:30:47;;;;;;;2.58;1.70;;;12.80;99.90;;;;;;5083904;28;20196;-72
2022/02/04 13:33:23;;;;;;;5.47;1.70;;;12.70;99.90;;;;;;5089099;28;20152;-73
2022/02/04 13:36:01;;;;;;;3.25;1.58;;;12.70;99.90;;;;;;5089439;28;20155;-73
2022/02/04 13:38:34;;;;;;;2.63;1.63;;;12.80;99.90;;;;;;5080374;28;20645;-73
2022/02/04 13:41:12;;;;;;;4.60;1.55;;;12.50;99.90;;;;;;5077613;28;20220;-70
2022/02/04 13:43:49;;;;;;;4.28;2.20;;;12.20;99.90;;;;;;5069246;28;20153;-71
2022/02/04 13:49:00;;;;;;;7.65;2.42;;;12.30;99.90;;;;;;5069124;28;20176;-72
2022/02/04 13:54:38;;;;;;;4.70;1.60;;;12.50;99.90;;;;;;5068502;28;20190;-73
2022/02/04 13:57:21;;;;;;;2.28;1.23;;;12.70;99.90;;;;;;5068786;28;20278;-72
2022/02/04 14:00:22;;;;;;;1.83;1.67;;;12.70;99.90;;;;;;5086006;28;20215;-72
2022/02/04 14:02:53;;;;;;;2.05;1.35;;;12.40;99.90;;;;;;5088810;28;20183;-72
2022/02/04 14:05:25;;;;;;;5.30;1.77;;;12.20;99.90;;;;;;5080099;28;20203;-71
2022/02/04 14:08:02;;;;;;;2.80;1.65;;;12.00;99.90;;;;;;5068766;28;20179;-73
2022/02/04 14:10:32;;;;;;;2.75;1.25;;;12.10;99.90;;;;;;5068816;28;20163;-72
2022/02/04 14:13:13;;;;;;;10.93;1.70;;;12.10;99.90;;;;;;5068938;28;20157;-73
2022/02/04 14:15:42;;;;;;;3.92;2.30;;;12.20;99.90;;;;;;5068719;28;20188;-74
2022/02/04 14:18:11;;;;;;;3.20;1.73;;;12.10;99.90;;;;;;5067674;28;20175;-73
2022/02/04 14:20:40;;;;;;;7.85;2.42;;;12.00;99.90;;;;;;5066672;28;20203;-74
2022/02/04 14:23:09;;;;;;;9.88;2.03;;;11.80;99.90;;;;;;5067749;28;20157;-73
2022/02/04 14:25:50;;;;;;;3.30;1.88;;;11.70;99.90;;;;;;5067980;28;20180;-73
2022/02/04 14:28:21;;;;;;;3.90;2.10;;;11.50;99.90;;;;;;5067570;28;20155;-73
2022/02/04 14:30:47;;;;;;;4.40;2.30;;;11.40;99.90;;;;;;5067368;28;20184;-73
2022/02/04 14:33:39;;;;;;;4.22;1.75;;;11.30;99.90;;;;;;5068416;28;20169;-73
2022/02/04 14:36:14;;;;;;;2.33;1.73;;;11.20;99.90;;;;;;5068610;28;20180;-73
2022/02/04 14:50:06;;;;;;;2.80;2.22;;;10.90;99.90;;;;;;5068444;28;20203;-73
2022/02/04 15:02:46;;;;;;;2.78;2.08;;;10.50;99.90;;;;;;5067998;28;20200;-73
2022/02/04 15:05:17;;;;;;;7.57;2.53;;;10.50;99.90;;;;;;5085513;28;20576;-73
2022/02/04 15:07:44;;;;;;;6.88;2.42;;;10.40;99.90;;;;;;5088213;28;20644;-72
2022/02/04 15:10:27;;;;;;;5.85;2.40;;;10.30;99.90;;;;;;5088188;28;20508;-72
2022/02/04 15:12:53;;;;;;;3.97;2.13;;;10.20;99.90;;;;;;5086162;28;20480;-72
2022/02/04 15:15:19;;;;;;;3.47;1.77;;;10.20;99.90;;;;;;5076190;28;20168;-72
2022/02/04 15:17:45;;;;;;;10.02;2.60;;;10.00;99.90;;;;;;5079365;28;20273;-72
2022/02/04 15:20:11;;;;;;;3.67;1.80;;;10.00;99.90;;;;;;5068251;28;20530;-72
2022/02/04 15:22:37;;;;;;;5.90;2.70;;;9.90;99.90;;;;;;5080713;28;20164;-72
2022/02/04 15:25:11;;;;;;;3.85;1.98;;;9.90;99.90;;;;;;5087970;28;20152;-72
2022/02/04 15:27:43;;;;;;;6.05;2.08;;;9.90;99.90;;;;;;5086901;28;20203;-72
2022/02/04 15:30:11;;;;;;;3.65;2.05;;;9.90;99.90;;;;;;5083446;28;20157;-72
2022/02/04 15:32:37;;;;;;;5.72;3.08;;;9.70;99.90;;;;;;5068629;28;20157;-72
2022/02/04 15:35:05;;;;;;;4.03;2.90;;;9.70;99.90;;;;;;5071680;28;20153;-73
2022/02/04 15:37:31;;;;;;;7.50;2.63;;;9.70;99.90;;;;;;5070368;28;20172;-72
2022/02/04 15:39:57;;;;;;;8.55;3.17;;;9.60;99.90;;;;;;5071394;28;20194;-72
2022/02/04 15:42:24;;;;;;;11.95;2.75;;;9.40;99.90;;;;;;5071544;28;20165;-72
2022/02/04 15:45:12;;;;;;;7.88;2.72;;;9.30;99.90;;;;;;5071316;28;20188;-73
2022/02/04 15:48:16;;;;;;;7.15;3.38;;;9.10;99.90;;;;;;5078959;28;20191;-72
2022/02/04 15:50:58;;;;;;;3.60;2.45;;;9.20;99.90;;;;;;5091191;28;20205;-72
2022/02/04 15:56:07;;;;;;;5.05;2.88;;;8.90;99.90;;;;;;5091486;28;20164;-72
2022/02/04 16:02:24;;;;;;;5.70;3.03;;;8.60;99.90;;;;;;5090865;28;20223;-73
2022/02/04 16:04:23;;;;;;;14.23;3.83;;;8.50;99.90;;;;;;5094839;28;20203;-72
2022/02/04 16:06:50;;;;;;;4.63;3.28;;;8.50;99.90;;;;;;5091148;28;20202;-73
2022/02/04 16:09:18;;;;;;;8.02;3.33;;;8.50;99.90;;;;;;5091013;28;20580;-72
2022/02/04 16:12:21;;;;;;;8.32;3.53;;;8.40;99.90;;;;;;5091099;28;20223;-72
2022/02/04 16:17:14;;;;;;;10.95;2.80;;;8.20;99.90;;;;;;5070787;28;20220;-72
2022/02/04 16:20:07;;;;;;;5.35;2.75;;;8.10;99.90;;;;;;5090309;28;20210;-72
2022/02/04 16:25:15;;;;;;;7.30;3.15;;;7.80;99.90;;;;;;5070699;28;20256;-72
2022/02/04 16:30:08;;;;;;;7.65;3.10;;;7.70;99.90;;;;;;5080994;28;20194;-72
2022/02/04 16:32:34;;;;;;;6.03;3.35;;;7.70;99.90;;;;;;5090428;28;20220;-72
2022/02/04 16:35:03;;;;;;;6.65;3.55;;;7.60;99.90;;;;;;5089045;28;20206;-72
2022/02/04 16:37:36;;;;;;;4.45;3.20;;;7.40;99.90;;;;;;5090601;28;20156;-72
2022/02/04 16:40:10;;;;;;;7.72;3.45;;;7.20;99.90;;;;;;5090049;28;20186;-72
2022/02/04 16:42:36;;;;;;;6.32;3.17;;;7.00;99.90;;;;;;5090184;28;20167;-72
2022/02/04 16:45:02;;;;;;;5.43;3.55;;;6.60;99.90;;;;;;5089895;28;20259;-72
2022/02/04 16:47:28;;;;;;;6.72;3.45;;;6.40;99.90;;;;;;5090106;28;20253;-72
2022/02/04 16:49:54;;;;;;;9.95;3.45;;;6.20;99.90;;;;;;5089782;28;20168;-72
2022/02/04 16:52:20;;;;;;;7.65;4.07;;;5.90;99.90;;;;;;5089729;28;20173;-72
2022/02/04 16:54:46;;;;;;;8.32;3.63;;;5.70;99.90;;;;;;5090093;28;20183;-73
2022/02/04 16:57:12;;;;;;;7.45;3.85;;;5.50;99.90;;;;;;5070595;28;20208;-73
2022/02/04 16:59:38;;;;;;;12.15;6.75;;;5.40;99.90;;;;;;5068693;28;20173;-73
2022/02/04 17:02:06;;;;;;;10.30;5.35;;;5.30;99.90;;;;;;5069140;28;20208;-72
2022/02/04 17:04:32;;;;;;;11.50;6.43;;;5.30;99.90;;;;;;5069931;28;20184;-72
2022/02/04 17:07:05;;;;;;;14.90;7.60;;;5.40;99.90;;;;;;5069693;28;20204;-72
2022/02/04 17:09:36;;;;;;;13.18;6.38;;;5.30;99.90;;;;;;5070030;28;20183;-73
2022/02/04 17:12:06;;;;;;;15.60;6.55;;;5.20;99.90;;;;;;5069370;28;20176;-73
2022/02/04 17:14:34;;;;;;;10.55;6.22;;;5.10;99.90;;;;;;5069753;28;20168;-72
2022/02/04 17:17:03;;;;;;;12.77;6.60;;;4.90;99.90;;;;;;5069577;28;20200;-73
2022/02/04 17:19:34;;;;;;;20.35;8.02;;;4.80;99.90;;;;;;5069544;28;20212;-73
2022/02/04 17:22:03;;;;;;;15.90;6.78;;;4.70;99.90;;;;;;5078738;28;20531;-72
2022/02/04 17:24:31;;;;;;;13.63;6.00;;;4.60;99.90;;;;;;5089842;28;20211;-73
2022/02/04 17:26:58;;;;;;;10.35;6.80;;;4.50;99.90;;;;;;5089515;28;20269;-72
2022/02/04 17:29:28;;;;;;;13.13;6.32;;;4.40;99.90;;;;;;5088398;28;20197;-72
2022/02/04 17:31:54;;;;;;;8.55;5.30;;;4.30;99.90;;;;;;5089078;28;20250;-72
2022/02/04 17:34:21;;;;;;;13.77;5.50;;;4.20;99.90;;;;;;5089220;28;20521;-72
2022/02/04 17:36:46;;;;;;;7.78;5.32;;;4.20;99.90;;;;;;5089199;28;20648;-71
2022/02/04 17:39:20;;;;;;;12.23;5.43;;;4.20;99.90;;;;;;5089351;28;20156;-71
2022/02/04 17:41:48;;;;;;;7.80;5.65;;;4.20;99.90;;;;;;5089455;28;20175;-72
2022/02/04 17:44:16;;;;;;;10.93;4.68;;;4.10;99.90;;;;;;5088597;28;20502;-72
2022/02/04 17:46:43;;;;;;;12.57;6.03;;;4.10;99.90;;;;;;5088226;28;20660;-73
2022/02/04 17:52:16;;;;;;;11.10;5.82;;;4.30;99.90;;;;;;5087067;28;20160;-72
2022/02/04 17:54:48;;;;;;;9.55;5.82;;;4.20;99.90;;;;;;5068887;28;20189;-72
2022/02/04 17:57:20;;;;;;;12.85;6.47;;;4.30;99.90;;;;;;5068744;28;20180;-72
2022/02/04 18:00:05;;;;;;;15.25;5.75;;;4.30;99.90;;;;;;5069101;28;20161;-72
2022/02/04 18:07:38;;;;;;;13.82;5.78;;;4.30;99.90;;;;;;5069001;28;20192;-72
2022/02/04 18:10:07;;;;;;;15.30;5.30;;;4.30;99.90;;;;;;5067620;28;20188;-73
2022/02/04 18:12:35;;;;;;;9.77;5.10;;;4.30;99.90;;;;;;5068885;28;20211;-72
2022/02/04 18:15:03;;;;;;;9.35;5.43;;;4.20;99.90;;;;;;5068868;28;20168;-72
2022/02/04 18:17:29;;;;;;;24.48;10.00;;;4.20;99.90;;;;;;5068849;28;20156;-72
2022/02/04 18:19:55;;;;;;;23.25;10.68;;;4.20;99.90;;;;;;5068784;28;20184;-72
2022/02/04 18:22:22;;;;;;;12.90;6.30;;;4.20;99.90;;;;;;5081214;28;20259;-72
2022/02/04 18:24:47;;;;;;;22.88;11.52;;;4.10;99.90;;;;;;5070592;28;20192;-72
2022/02/04 18:27:14;;;;;;;15.75;7.80;;;4.20;99.90;;;;;;5068751;28;20196;-72
2022/02/04 18:29:45;;;;;;;13.05;6.70;;;4.20;99.90;;;;;;5068684;28;20156;-72
2022/02/04 18:32:11;;;;;;;12.05;7.70;;;4.20;99.90;;;;;;5070803;28;20236;-72
2022/02/04 18:34:37;;;;;;;20.20;11.18;;;4.20;99.90;;;;;;5086887;28;20180;-72
2022/02/04 18:37:05;;;;;;;19.33;10.75;;;4.20;99.90;;;;;;5088855;28;20167;-72
2022/02/04 18:44:51;;;;;;;15.93;8.00;;;4.10;99.90;;;;;;5068594;28;20167;-72
2022/02/04 18:47:37;;;;;;;15.65;7.72;;;3.90;99.90;;;;;;5068570;28;20267;-72
2022/02/04 18:50:09;;;;;;;22.55;10.68;;;3.80;99.90;;;;;;5068269;28;20160;-72
2022/02/04 18:53:08;;;;;;;28.58;13.15;;;3.70;99.90;;;;;;5077975;28;20191;-72
2022/02/04 18:58:10;;;;;;;42.20;18.92;;;3.80;99.90;;;;;;5088428;28;20167;-72
2022/02/04 19:00:37;;;;;;;22.55;10.55;;;3.70;99.90;;;;;;5087812;28;20206;-72
2022/02/04 19:03:07;;;;;;;27.77;13.10;;;3.50;99.90;;;;;;5088639;28;20309;-72